sensor_id;sensor_type;location;lat;lon;timestamp;P1;durP1;ratioP1;P2;durP2;ratioP2
34146;SDS011;20423;49.448;9.056;2022-11-15T00:01:30;10.00;;;6.07;;
34146;SDS011;20423;49.448;9.056;2022-11-15T00:04:14;10.75;;;6.85;;
34146;SDS011;20423;49.448;9.056;2022-11-15T00:06:58;13.40;;;6.40;;
34146;SDS011;20423;49.448;9.056;2022-11-15T00:09:42;15.93;;;6.72;;
34146;SDS011;20423;49.448;9.056;2022-11-15T00:12:27;10.85;;;6.50;;
34146;SDS011;20423;49.448;9.056;2022-11-15T00:15:12;14.40;;;7.00;;
34146;SDS011;20423;49.448;9.056;2022-11-15T00:17:56;11.98;;;6.45;;
34146;SDS011;20423;49.448;9.056;2022-11-15T00:20:40;27.05;;;11.80;;
34146;SDS011;20423;49.448;9.056;2022-11-15T00:23:24;29.88;;;13.27;;
34146;SDS011;20423;49.448;9.056;2022-11-15T00:26:12;23.65;;;10.73;;
34146;SDS011;20423;49.448;9.056;2022-11-15T00:28:58;30.38;;;12.15;;
34146;SDS011;20423;49.448;9.056;2022-11-15T00:31:42;43.20;;;15.45;;
34146;SDS011;20423;49.448;9.056;2022-11-15T00:34:26;24.58;;;8.70;;
34146;SDS011;20423;49.448;9.056;2022-11-15T00:37:10;20.30;;;8.55;;
34146;SDS011;20423;49.448;9.056;2022-11-15T00:39:54;23.30;;;10.00;;
34146;SDS011;20423;49.448;9.056;2022-11-15T00:42:38;36.03;;;14.23;;
34146;SDS011;20423;49.448;9.056;2022-11-15T00:45:24;39.30;;;14.18;;
34146;SDS011;20423;49.448;9.056;2022-11-15T00:48:09;30.90;;;10.73;;
34146;SDS011;20423;49.448;9.056;2022-11-15T00:50:53;28.92;;;11.23;;
34146;SDS011;20423;49.448;9.056;2022-11-15T00:53:37;16.30;;;8.10;;
34146;SDS011;20423;49.448;9.056;2022-11-15T00:56:21;30.65;;;13.27;;
34146;SDS011;20423;49.448;9.056;2022-11-15T00:59:05;17.38;;;7.88;;
34146;SDS011;20423;49.448;9.056;2022-11-15T01:01:49;29.90;;;13.10;;
34146;SDS011;20423;49.448;9.056;2022-11-15T01:04:33;30.58;;;10.13;;
34146;SDS011;20423;49.448;9.056;2022-11-15T01:07:17;15.52;;;7.65;;
34146;SDS011;20423;49.448;9.056;2022-11-15T01:10:01;13.57;;;6.72;;
34146;SDS011;20423;49.448;9.056;2022-11-15T01:12:46;13.00;;;6.50;;
34146;SDS011;20423;49.448;9.056;2022-11-15T01:15:31;11.13;;;6.28;;
34146;SDS011;20423;49.448;9.056;2022-11-15T01:18:15;14.30;;;6.72;;
34146;SDS011;20423;49.448;9.056;2022-11-15T01:20:59;9.32;;;6.40;;
34146;SDS011;20423;49.448;9.056;2022-11-15T01:23:43;11.70;;;5.93;;
34146;SDS011;20423;49.448;9.056;2022-11-15T01:26:28;14.93;;;6.07;;
34146;SDS011;20423;49.448;9.056;2022-11-15T01:29:12;8.93;;;5.85;;
34146;SDS011;20423;49.448;9.056;2022-11-15T01:31:56;12.27;;;6.88;;
34146;SDS011;20423;49.448;9.056;2022-11-15T01:34:41;11.07;;;6.47;;
34146;SDS011;20423;49.448;9.056;2022-11-15T01:37:25;13.40;;;5.72;;
34146;SDS011;20423;49.448;9.056;2022-11-15T01:40:09;11.23;;;6.10;;
34146;SDS011;20423;49.448;9.056;2022-11-15T01:42:53;10.77;;;6.35;;
34146;SDS011;20423;49.448;9.056;2022-11-15T01:45:38;8.30;;;5.47;;
34146;SDS011;20423;49.448;9.056;2022-11-15T01:48:23;12.63;;;6.05;;
34146;SDS011;20423;49.448;9.056;2022-11-15T01:51:14;9.18;;;5.90;;
34146;SDS011;20423;49.448;9.056;2022-11-15T01:54:06;9.63;;;6.13;;
34146;SDS011;20423;49.448;9.056;2022-11-15T01:56:57;12.52;;;6.28;;
34146;SDS011;20423;49.448;9.056;2022-11-15T01:59:45;10.13;;;5.97;;
34146;SDS011;20423;49.448;9.056;2022-11-15T02:02:31;11.25;;;6.65;;
34146;SDS011;20423;49.448;9.056;2022-11-15T02:05:25;15.27;;;7.20;;
34146;SDS011;20423;49.448;9.056;2022-11-15T02:08:09;15.93;;;7.43;;
34146;SDS011;20423;49.448;9.056;2022-11-15T02:11:04;16.15;;;7.43;;
34146;SDS011;20423;49.448;9.056;2022-11-15T02:13:51;10.05;;;6.93;;
34146;SDS011;20423;49.448;9.056;2022-11-15T02:16:58;8.65;;;6.30;;
34146;SDS011;20423;49.448;9.056;2022-11-15T02:29:32;9.73;;;6.28;;
34146;SDS011;20423;49.448;9.056;2022-11-15T02:41:25;22.60;;;9.43;;
34146;SDS011;20423;49.448;9.056;2022-11-15T02:44:26;15.43;;;9.13;;
34146;SDS011;20423;49.448;9.056;2022-11-15T02:47:16;11.90;;;7.53;;
34146;SDS011;20423;49.448;9.056;2022-11-15T02:50:02;18.50;;;6.07;;
34146;SDS011;20423;49.448;9.056;2022-11-15T02:52:50;12.30;;;5.38;;
34146;SDS011;20423;49.448;9.056;2022-11-15T02:55:40;10.35;;;6.18;;
34146;SDS011;20423;49.448;9.056;2022-11-15T03:01:38;14.07;;;6.05;;
34146;SDS011;20423;49.448;9.056;2022-11-15T03:07:29;10.40;;;6.78;;
34146;SDS011;20423;49.448;9.056;2022-11-15T03:10:24;12.75;;;6.28;;
34146;SDS011;20423;49.448;9.056;2022-11-15T03:16:04;16.25;;;7.63;;
34146;SDS011;20423;49.448;9.056;2022-11-15T03:22:46;18.60;;;7.78;;
34146;SDS011;20423;49.448;9.056;2022-11-15T03:25:33;17.08;;;7.70;;
34146;SDS011;20423;49.448;9.056;2022-11-15T03:28:21;11.68;;;6.38;;
34146;SDS011;20423;49.448;9.056;2022-11-15T03:31:08;14.05;;;7.10;;
34146;SDS011;20423;49.448;9.056;2022-11-15T03:37:32;12.80;;;7.47;;
34146;SDS011;20423;49.448;9.056;2022-11-15T03:40:17;11.70;;;6.38;;
34146;SDS011;20423;49.448;9.056;2022-11-15T03:46:02;9.90;;;6.30;;
34146;SDS011;20423;49.448;9.056;2022-11-15T03:48:56;11.45;;;6.70;;
34146;SDS011;20423;49.448;9.056;2022-11-15T03:51:47;11.10;;;6.28;;
34146;SDS011;20423;49.448;9.056;2022-11-15T03:54:31;9.60;;;6.40;;
34146;SDS011;20423;49.448;9.056;2022-11-15T03:57:16;8.50;;;5.32;;
34146;SDS011;20423;49.448;9.056;2022-11-15T04:00:00;9.90;;;5.78;;
34146;SDS011;20423;49.448;9.056;2022-11-15T04:02:45;11.65;;;5.53;;
34146;SDS011;20423;49.448;9.056;2022-11-15T04:05:29;10.85;;;5.60;;
34146;SDS011;20423;49.448;9.056;2022-11-15T04:08:13;10.65;;;5.38;;
34146;SDS011;20423;49.448;9.056;2022-11-15T04:10:57;13.40;;;6.13;;
34146;SDS011;20423;49.448;9.056;2022-11-15T04:13:41;13.57;;;6.35;;
34146;SDS011;20423;49.448;9.056;2022-11-15T04:16:25;14.73;;;6.43;;
34146;SDS011;20423;49.448;9.056;2022-11-15T04:19:09;10.75;;;6.25;;
34146;SDS011;20423;49.448;9.056;2022-11-15T04:22:12;12.00;;;6.13;;
34146;SDS011;20423;49.448;9.056;2022-11-15T04:28:40;9.10;;;5.88;;
34146;SDS011;20423;49.448;9.056;2022-11-15T04:31:43;12.20;;;5.88;;
34146;SDS011;20423;49.448;9.056;2022-11-15T04:34:27;10.73;;;5.80;;
34146;SDS011;20423;49.448;9.056;2022-11-15T04:37:12;11.30;;;6.05;;
34146;SDS011;20423;49.448;9.056;2022-11-15T04:39:56;9.45;;;5.97;;
34146;SDS011;20423;49.448;9.056;2022-11-15T04:42:41;10.80;;;5.90;;
34146;SDS011;20423;49.448;9.056;2022-11-15T04:45:26;11.82;;;6.60;;
34146;SDS011;20423;49.448;9.056;2022-11-15T04:48:10;15.57;;;8.45;;
34146;SDS011;20423;49.448;9.056;2022-11-15T04:50:54;15.55;;;7.22;;
34146;SDS011;20423;49.448;9.056;2022-11-15T04:53:38;19.02;;;7.75;;
34146;SDS011;20423;49.448;9.056;2022-11-15T04:56:22;13.77;;;8.68;;
34146;SDS011;20423;49.448;9.056;2022-11-15T04:59:06;13.00;;;7.15;;
34146;SDS011;20423;49.448;9.056;2022-11-15T05:01:50;13.57;;;7.43;;
34146;SDS011;20423;49.448;9.056;2022-11-15T05:04:34;12.52;;;6.38;;
34146;SDS011;20423;49.448;9.056;2022-11-15T05:07:18;17.10;;;7.05;;
34146;SDS011;20423;49.448;9.056;2022-11-15T05:10:03;9.35;;;6.28;;
34146;SDS011;20423;49.448;9.056;2022-11-15T05:12:47;14.20;;;6.13;;
34146;SDS011;20423;49.448;9.056;2022-11-15T05:15:31;10.30;;;5.78;;
34146;SDS011;20423;49.448;9.056;2022-11-15T05:18:16;12.18;;;5.13;;
34146;SDS011;20423;49.448;9.056;2022-11-15T05:21:03;11.80;;;5.45;;
34146;SDS011;20423;49.448;9.056;2022-11-15T05:23:49;12.10;;;4.70;;
34146;SDS011;20423;49.448;9.056;2022-11-15T05:26:33;11.93;;;5.00;;
34146;SDS011;20423;49.448;9.056;2022-11-15T05:29:17;10.52;;;5.85;;
34146;SDS011;20423;49.448;9.056;2022-11-15T05:32:03;8.90;;;5.47;;
34146;SDS011;20423;49.448;9.056;2022-11-15T05:34:49;15.30;;;5.72;;
34146;SDS011;20423;49.448;9.056;2022-11-15T05:37:34;11.55;;;5.68;;
34146;SDS011;20423;49.448;9.056;2022-11-15T05:40:18;10.10;;;6.28;;
34146;SDS011;20423;49.448;9.056;2022-11-15T05:43:02;10.05;;;5.97;;
34146;SDS011;20423;49.448;9.056;2022-11-15T05:45:48;14.00;;;7.40;;
34146;SDS011;20423;49.448;9.056;2022-11-15T05:48:34;11.75;;;7.18;;
34146;SDS011;20423;49.448;9.056;2022-11-15T05:51:20;14.68;;;8.25;;
34146;SDS011;20423;49.448;9.056;2022-11-15T05:54:05;13.77;;;6.57;;
34146;SDS011;20423;49.448;9.056;2022-11-15T05:56:49;9.48;;;6.07;;
34146;SDS011;20423;49.448;9.056;2022-11-15T05:59:34;10.35;;;5.57;;
34146;SDS011;20423;49.448;9.056;2022-11-15T06:02:19;9.70;;;5.70;;
34146;SDS011;20423;49.448;9.056;2022-11-15T06:05:03;9.27;;;5.72;;
34146;SDS011;20423;49.448;9.056;2022-11-15T06:07:48;12.30;;;7.45;;
34146;SDS011;20423;49.448;9.056;2022-11-15T06:10:32;10.38;;;6.55;;
34146;SDS011;20423;49.448;9.056;2022-11-15T06:16:25;44.47;;;21.83;;
34146;SDS011;20423;49.448;9.056;2022-11-15T06:19:09;16.77;;;10.07;;
34146;SDS011;20423;49.448;9.056;2022-11-15T06:21:54;14.15;;;7.35;;
34146;SDS011;20423;49.448;9.056;2022-11-15T06:24:38;13.25;;;6.50;;
34146;SDS011;20423;49.448;9.056;2022-11-15T06:27:22;11.18;;;5.97;;
34146;SDS011;20423;49.448;9.056;2022-11-15T06:30:07;6.97;;;4.72;;
34146;SDS011;20423;49.448;9.056;2022-11-15T06:32:52;8.27;;;5.05;;
34146;SDS011;20423;49.448;9.056;2022-11-15T06:35:43;11.45;;;5.00;;
34146;SDS011;20423;49.448;9.056;2022-11-15T06:38:27;15.27;;;7.93;;
34146;SDS011;20423;49.448;9.056;2022-11-15T06:41:11;38.63;;;23.88;;
34146;SDS011;20423;49.448;9.056;2022-11-15T06:43:57;32.38;;;19.83;;
34146;SDS011;20423;49.448;9.056;2022-11-15T06:46:41;21.52;;;15.15;;
34146;SDS011;20423;49.448;9.056;2022-11-15T06:49:25;15.95;;;8.88;;
34146;SDS011;20423;49.448;9.056;2022-11-15T06:52:10;14.73;;;6.78;;
34146;SDS011;20423;49.448;9.056;2022-11-15T06:54:54;10.85;;;5.65;;
34146;SDS011;20423;49.448;9.056;2022-11-15T07:01:25;13.07;;;6.78;;
34146;SDS011;20423;49.448;9.056;2022-11-15T07:04:10;15.85;;;8.05;;
34146;SDS011;20423;49.448;9.056;2022-11-15T07:06:54;12.25;;;7.22;;
34146;SDS011;20423;49.448;9.056;2022-11-15T07:09:38;9.98;;;6.28;;
34146;SDS011;20423;49.448;9.056;2022-11-15T07:12:22;10.63;;;6.88;;
34146;SDS011;20423;49.448;9.056;2022-11-15T07:15:06;13.02;;;6.20;;
34146;SDS011;20423;49.448;9.056;2022-11-15T07:17:51;11.80;;;5.63;;
34146;SDS011;20423;49.448;9.056;2022-11-15T07:20:36;10.18;;;5.68;;
34146;SDS011;20423;49.448;9.056;2022-11-15T07:23:20;18.33;;;5.80;;
34146;SDS011;20423;49.448;9.056;2022-11-15T07:26:04;13.95;;;6.32;;
34146;SDS011;20423;49.448;9.056;2022-11-15T07:28:49;8.18;;;5.47;;
34146;SDS011;20423;49.448;9.056;2022-11-15T07:31:34;6.78;;;4.57;;
34146;SDS011;20423;49.448;9.056;2022-11-15T07:34:19;13.02;;;5.97;;
34146;SDS011;20423;49.448;9.056;2022-11-15T07:37:03;14.70;;;6.15;;
34146;SDS011;20423;49.448;9.056;2022-11-15T07:39:47;9.98;;;6.13;;
34146;SDS011;20423;49.448;9.056;2022-11-15T07:42:32;13.73;;;6.38;;
34146;SDS011;20423;49.448;9.056;2022-11-15T07:45:39;14.02;;;6.22;;
34146;SDS011;20423;49.448;9.056;2022-11-15T07:48:27;13.20;;;7.03;;
34146;SDS011;20423;49.448;9.056;2022-11-15T07:51:21;15.20;;;7.10;;
34146;SDS011;20423;49.448;9.056;2022-11-15T07:54:05;19.75;;;6.70;;
34146;SDS011;20423;49.448;9.056;2022-11-15T07:56:49;10.20;;;6.20;;
34146;SDS011;20423;49.448;9.056;2022-11-15T07:59:34;14.63;;;6.35;;
34146;SDS011;20423;49.448;9.056;2022-11-15T08:02:24;18.13;;;6.60;;
34146;SDS011;20423;49.448;9.056;2022-11-15T08:05:08;12.75;;;5.75;;
34146;SDS011;20423;49.448;9.056;2022-11-15T08:07:54;12.27;;;6.47;;
34146;SDS011;20423;49.448;9.056;2022-11-15T08:10:40;12.90;;;7.85;;
34146;SDS011;20423;49.448;9.056;2022-11-15T08:13:25;9.40;;;5.28;;
34146;SDS011;20423;49.448;9.056;2022-11-15T08:16:09;21.52;;;8.48;;
34146;SDS011;20423;49.448;9.056;2022-11-15T08:18:55;15.93;;;7.20;;
34146;SDS011;20423;49.448;9.056;2022-11-15T08:21:40;12.68;;;6.50;;
34146;SDS011;20423;49.448;9.056;2022-11-15T08:24:24;16.15;;;7.18;;
34146;SDS011;20423;49.448;9.056;2022-11-15T08:27:24;16.15;;;5.25;;
34146;SDS011;20423;49.448;9.056;2022-11-15T08:30:08;12.57;;;5.15;;
34146;SDS011;20423;49.448;9.056;2022-11-15T08:32:53;8.90;;;4.97;;
34146;SDS011;20423;49.448;9.056;2022-11-15T08:35:40;9.35;;;5.53;;
34146;SDS011;20423;49.448;9.056;2022-11-15T08:38:25;7.68;;;4.78;;
34146;SDS011;20423;49.448;9.056;2022-11-15T08:41:11;9.40;;;4.47;;
34146;SDS011;20423;49.448;9.056;2022-11-15T08:43:58;10.20;;;4.13;;
34146;SDS011;20423;49.448;9.056;2022-11-15T08:46:45;5.85;;;4.00;;
34146;SDS011;20423;49.448;9.056;2022-11-15T08:49:30;6.90;;;4.40;;
34146;SDS011;20423;49.448;9.056;2022-11-15T08:52:14;7.78;;;4.53;;
34146;SDS011;20423;49.448;9.056;2022-11-15T08:55:00;9.82;;;4.38;;
34146;SDS011;20423;49.448;9.056;2022-11-15T08:57:44;10.43;;;4.35;;
34146;SDS011;20423;49.448;9.056;2022-11-15T09:00:28;7.82;;;4.45;;
34146;SDS011;20423;49.448;9.056;2022-11-15T09:03:13;11.57;;;5.18;;
34146;SDS011;20423;49.448;9.056;2022-11-15T09:06:15;12.35;;;6.55;;
34146;SDS011;20423;49.448;9.056;2022-11-15T09:09:00;11.07;;;5.57;;
34146;SDS011;20423;49.448;9.056;2022-11-15T09:11:45;10.63;;;6.22;;
34146;SDS011;20423;49.448;9.056;2022-11-15T09:14:30;13.82;;;6.00;;
34146;SDS011;20423;49.448;9.056;2022-11-15T09:17:14;6.68;;;5.07;;
34146;SDS011;20423;49.448;9.056;2022-11-15T09:19:58;10.45;;;5.80;;
34146;SDS011;20423;49.448;9.056;2022-11-15T09:22:42;8.85;;;5.05;;
34146;SDS011;20423;49.448;9.056;2022-11-15T09:25:27;11.48;;;5.63;;
34146;SDS011;20423;49.448;9.056;2022-11-15T09:28:11;8.10;;;4.47;;
34146;SDS011;20423;49.448;9.056;2022-11-15T09:30:59;6.82;;;4.68;;
34146;SDS011;20423;49.448;9.056;2022-11-15T09:33:45;8.00;;;5.20;;
34146;SDS011;20423;49.448;9.056;2022-11-15T09:36:30;9.23;;;4.90;;
34146;SDS011;20423;49.448;9.056;2022-11-15T09:39:14;9.10;;;4.70;;
34146;SDS011;20423;49.448;9.056;2022-11-15T09:48:27;8.45;;;4.75;;
34146;SDS011;20423;49.448;9.056;2022-11-15T09:51:38;10.50;;;4.35;;
34146;SDS011;20423;49.448;9.056;2022-11-15T09:56:41;10.48;;;4.40;;
34146;SDS011;20423;49.448;9.056;2022-11-15T10:04:28;13.90;;;4.20;;
34146;SDS011;20423;49.448;9.056;2022-11-15T10:06:57;6.88;;;4.20;;
34146;SDS011;20423;49.448;9.056;2022-11-15T10:09:39;10.07;;;4.50;;
34146;SDS011;20423;49.448;9.056;2022-11-15T10:12:13;5.95;;;4.25;;
34146;SDS011;20423;49.448;9.056;2022-11-15T10:14:40;6.70;;;4.07;;
34146;SDS011;20423;49.448;9.056;2022-11-15T10:27:38;7.40;;;3.80;;
34146;SDS011;20423;49.448;9.056;2022-11-15T10:30:10;5.68;;;3.78;;
34146;SDS011;20423;49.448;9.056;2022-11-15T10:32:39;8.13;;;3.50;;
34146;SDS011;20423;49.448;9.056;2022-11-15T10:37:48;7.63;;;3.88;;
34146;SDS011;20423;49.448;9.056;2022-11-15T10:40:23;7.32;;;3.28;;
34146;SDS011;20423;49.448;9.056;2022-11-15T10:45:34;8.60;;;3.88;;
34146;SDS011;20423;49.448;9.056;2022-11-15T10:50:42;6.47;;;3.40;;
34146;SDS011;20423;49.448;9.056;2022-11-15T10:55:48;5.40;;;3.60;;
34146;SDS011;20423;49.448;9.056;2022-11-15T10:58:33;4.15;;;3.33;;
34146;SDS011;20423;49.448;9.056;2022-11-15T11:01:13;4.60;;;3.33;;
34146;SDS011;20423;49.448;9.056;2022-11-15T11:03:39;7.57;;;3.70;;
34146;SDS011;20423;49.448;9.056;2022-11-15T11:06:14;6.45;;;3.70;;
34146;SDS011;20423;49.448;9.056;2022-11-15T11:11:45;4.78;;;3.70;;
34146;SDS011;20423;49.448;9.056;2022-11-15T11:14:23;6.57;;;3.40;;
34146;SDS011;20423;49.448;9.056;2022-11-15T11:36:45;9.15;;;5.00;;
34146;SDS011;20423;49.448;9.056;2022-11-15T11:45:01;4.68;;;2.80;;
34146;SDS011;20423;49.448;9.056;2022-11-15T11:47:40;5.97;;;3.47;;
34146;SDS011;20423;49.448;9.056;2022-11-15T11:50:20;8.63;;;3.70;;
34146;SDS011;20423;49.448;9.056;2022-11-15T11:58:13;5.10;;;3.33;;
34146;SDS011;20423;49.448;9.056;2022-11-15T12:12:00;8.23;;;3.70;;
34146;SDS011;20423;49.448;9.056;2022-11-15T12:14:38;5.13;;;3.38;;
34146;SDS011;20423;49.448;9.056;2022-11-15T12:17:13;9.25;;;3.80;;
34146;SDS011;20423;49.448;9.056;2022-11-15T12:19:42;8.32;;;3.50;;
34146;SDS011;20423;49.448;9.056;2022-11-15T12:28:50;7.50;;;4.33;;
34146;SDS011;20423;49.448;9.056;2022-11-15T12:33:43;7.05;;;3.35;;
34146;SDS011;20423;49.448;9.056;2022-11-15T12:41:26;6.35;;;3.47;;
34146;SDS011;20423;49.448;9.056;2022-11-15T12:43:54;8.60;;;3.40;;
34146;SDS011;20423;49.448;9.056;2022-11-15T12:52:04;6.07;;;3.63;;
34146;SDS011;20423;49.448;9.056;2022-11-15T12:59:49;12.68;;;5.43;;
34146;SDS011;20423;49.448;9.056;2022-11-15T13:05:51;6.90;;;3.78;;
34146;SDS011;20423;49.448;9.056;2022-11-15T13:08:06;10.00;;;4.70;;
34146;SDS011;20423;49.448;9.056;2022-11-15T13:10:32;11.82;;;4.20;;
34146;SDS011;20423;49.448;9.056;2022-11-15T13:13:08;5.63;;;3.60;;
34146;SDS011;20423;49.448;9.056;2022-11-15T13:22:11;6.93;;;4.10;;
34146;SDS011;20423;49.448;9.056;2022-11-15T13:24:56;7.18;;;4.60;;
34146;SDS011;20423;49.448;9.056;2022-11-15T13:27:22;7.05;;;4.20;;
34146;SDS011;20423;49.448;9.056;2022-11-15T13:29:49;9.05;;;3.80;;
34146;SDS011;20423;49.448;9.056;2022-11-15T13:32:15;8.55;;;4.07;;
34146;SDS011;20423;49.448;9.056;2022-11-15T13:34:45;7.15;;;3.58;;
34146;SDS011;20423;49.448;9.056;2022-11-15T13:42:17;6.82;;;3.83;;
34146;SDS011;20423;49.448;9.056;2022-11-15T13:44:58;8.30;;;4.47;;
34146;SDS011;20423;49.448;9.056;2022-11-15T13:49:53;7.25;;;4.75;;
34146;SDS011;20423;49.448;9.056;2022-11-15T13:52:22;10.40;;;4.53;;
34146;SDS011;20423;49.448;9.056;2022-11-15T13:58:05;8.57;;;4.63;;
34146;SDS011;20423;49.448;9.056;2022-11-15T14:00:38;14.95;;;5.78;;
34146;SDS011;20423;49.448;9.056;2022-11-15T14:05:40;8.55;;;3.90;;
34146;SDS011;20423;49.448;9.056;2022-11-15T14:10:44;8.75;;;4.22;;
34146;SDS011;20423;49.448;9.056;2022-11-15T14:13:11;9.07;;;4.05;;
34146;SDS011;20423;49.448;9.056;2022-11-15T14:15:55;8.65;;;5.07;;
34146;SDS011;20423;49.448;9.056;2022-11-15T14:18:46;8.93;;;4.47;;
34146;SDS011;20423;49.448;9.056;2022-11-15T14:24:23;8.18;;;3.40;;
34146;SDS011;20423;49.448;9.056;2022-11-15T14:26:56;7.22;;;2.90;;
34146;SDS011;20423;49.448;9.056;2022-11-15T14:29:23;7.70;;;3.95;;
34146;SDS011;20423;49.448;9.056;2022-11-15T14:31:50;10.75;;;4.03;;
34146;SDS011;20423;49.448;9.056;2022-11-15T14:34:16;11.43;;;4.25;;
34146;SDS011;20423;49.448;9.056;2022-11-15T14:36:42;5.57;;;3.40;;
34146;SDS011;20423;49.448;9.056;2022-11-15T14:39:07;9.32;;;4.25;;
34146;SDS011;20423;49.448;9.056;2022-11-15T14:41:34;11.27;;;4.93;;
34146;SDS011;20423;49.448;9.056;2022-11-15T14:44:04;12.50;;;4.07;;
34146;SDS011;20423;49.448;9.056;2022-11-15T14:46:31;10.60;;;4.00;;
34146;SDS011;20423;49.448;9.056;2022-11-15T14:48:56;10.32;;;4.05;;
34146;SDS011;20423;49.448;9.056;2022-11-15T14:51:22;7.97;;;4.35;;
34146;SDS011;20423;49.448;9.056;2022-11-15T14:53:48;8.05;;;3.90;;
34146;SDS011;20423;49.448;9.056;2022-11-15T14:56:14;6.00;;;3.78;;
34146;SDS011;20423;49.448;9.056;2022-11-15T14:58:41;6.05;;;3.58;;
34146;SDS011;20423;49.448;9.056;2022-11-15T15:01:12;9.38;;;4.10;;
34146;SDS011;20423;49.448;9.056;2022-11-15T15:03:44;12.75;;;3.88;;
34146;SDS011;20423;49.448;9.056;2022-11-15T15:06:10;7.60;;;3.88;;
34146;SDS011;20423;49.448;9.056;2022-11-15T15:08:38;9.98;;;3.58;;
34146;SDS011;20423;49.448;9.056;2022-11-15T15:11:08;7.10;;;4.03;;
34146;SDS011;20423;49.448;9.056;2022-11-15T15:13:39;45.80;;;19.77;;
34146;SDS011;20423;49.448;9.056;2022-11-15T15:16:05;25.90;;;13.82;;
34146;SDS011;20423;49.448;9.056;2022-11-15T15:18:31;13.05;;;6.60;;
34146;SDS011;20423;49.448;9.056;2022-11-15T15:20:57;7.75;;;4.10;;
34146;SDS011;20423;49.448;9.056;2022-11-15T15:23:27;10.13;;;5.28;;
34146;SDS011;20423;49.448;9.056;2022-11-15T15:25:55;20.27;;;13.43;;
34146;SDS011;20423;49.448;9.056;2022-11-15T15:28:22;13.90;;;8.63;;
34146;SDS011;20423;49.448;9.056;2022-11-15T15:30:47;11.95;;;6.35;;
34146;SDS011;20423;49.448;9.056;2022-11-15T15:33:14;15.52;;;3.92;;
34146;SDS011;20423;49.448;9.056;2022-11-15T15:35:40;7.65;;;3.75;;
34146;SDS011;20423;49.448;9.056;2022-11-15T15:38:08;7.55;;;3.90;;
34146;SDS011;20423;49.448;9.056;2022-11-15T15:40:37;6.72;;;3.53;;
34146;SDS011;20423;49.448;9.056;2022-11-15T15:43:03;10.07;;;3.88;;
34146;SDS011;20423;49.448;9.056;2022-11-15T15:45:29;8.68;;;3.47;;
34146;SDS011;20423;49.448;9.056;2022-11-15T15:47:57;6.32;;;3.42;;
34146;SDS011;20423;49.448;9.056;2022-11-15T15:50:27;5.43;;;2.92;;
34146;SDS011;20423;49.448;9.056;2022-11-15T15:52:55;9.13;;;4.63;;
34146;SDS011;20423;49.448;9.056;2022-11-15T15:55:22;8.85;;;3.30;;
34146;SDS011;20423;49.448;9.056;2022-11-15T15:57:48;6.45;;;3.58;;
34146;SDS011;20423;49.448;9.056;2022-11-15T16:00:15;4.25;;;3.10;;
34146;SDS011;20423;49.448;9.056;2022-11-15T16:02:41;11.27;;;3.25;;
34146;SDS011;20423;49.448;9.056;2022-11-15T16:05:08;6.70;;;3.60;;
34146;SDS011;20423;49.448;9.056;2022-11-15T16:07:35;8.95;;;5.38;;
34146;SDS011;20423;49.448;9.056;2022-11-15T16:13:20;10.98;;;6.93;;
34146;SDS011;20423;49.448;9.056;2022-11-15T16:15:48;10.27;;;6.53;;
34146;SDS011;20423;49.448;9.056;2022-11-15T16:18:17;13.52;;;6.88;;
34146;SDS011;20423;49.448;9.056;2022-11-15T16:20:44;20.02;;;12.82;;
34146;SDS011;20423;49.448;9.056;2022-11-15T16:23:15;13.85;;;8.07;;
34146;SDS011;20423;49.448;9.056;2022-11-15T16:25:47;10.15;;;6.93;;
34146;SDS011;20423;49.448;9.056;2022-11-15T16:28:24;8.73;;;5.07;;
34146;SDS011;20423;49.448;9.056;2022-11-15T16:33:36;15.20;;;8.38;;
34146;SDS011;20423;49.448;9.056;2022-11-15T16:36:03;20.33;;;13.65;;
34146;SDS011;20423;49.448;9.056;2022-11-15T16:38:30;26.48;;;15.30;;
34146;SDS011;20423;49.448;9.056;2022-11-15T16:40:56;30.42;;;17.25;;
34146;SDS011;20423;49.448;9.056;2022-11-15T16:43:21;35.95;;;16.92;;
34146;SDS011;20423;49.448;9.056;2022-11-15T16:45:48;49.40;;;21.98;;
34146;SDS011;20423;49.448;9.056;2022-11-15T16:48:20;26.70;;;13.05;;
34146;SDS011;20423;49.448;9.056;2022-11-15T16:50:49;13.45;;;6.63;;
34146;SDS011;20423;49.448;9.056;2022-11-15T16:53:26;6.57;;;3.35;;
34146;SDS011;20423;49.448;9.056;2022-11-15T16:55:52;17.58;;;4.68;;
34146;SDS011;20423;49.448;9.056;2022-11-15T16:58:19;5.22;;;3.70;;
34146;SDS011;20423;49.448;9.056;2022-11-15T17:00:45;8.98;;;3.17;;
34146;SDS011;20423;49.448;9.056;2022-11-15T17:03:15;7.20;;;3.47;;
34146;SDS011;20423;49.448;9.056;2022-11-15T17:05:40;8.30;;;3.25;;
34146;SDS011;20423;49.448;9.056;2022-11-15T17:08:07;6.82;;;4.47;;
34146;SDS011;20423;49.448;9.056;2022-11-15T17:10:33;16.85;;;9.20;;
34146;SDS011;20423;49.448;9.056;2022-11-15T17:16:45;13.93;;;4.60;;
34146;SDS011;20423;49.448;9.056;2022-11-15T17:19:12;7.47;;;3.30;;
34146;SDS011;20423;49.448;9.056;2022-11-15T17:21:42;9.90;;;4.95;;
34146;SDS011;20423;49.448;9.056;2022-11-15T17:24:09;6.93;;;4.38;;
34146;SDS011;20423;49.448;9.056;2022-11-15T17:26:35;7.88;;;4.13;;
34146;SDS011;20423;49.448;9.056;2022-11-15T17:29:01;8.98;;;3.58;;
34146;SDS011;20423;49.448;9.056;2022-11-15T17:31:28;10.57;;;4.75;;
34146;SDS011;20423;49.448;9.056;2022-11-15T17:33:59;9.45;;;4.40;;
34146;SDS011;20423;49.448;9.056;2022-11-15T17:36:25;8.07;;;3.72;;
34146;SDS011;20423;49.448;9.056;2022-11-15T17:38:51;5.25;;;3.45;;
34146;SDS011;20423;49.448;9.056;2022-11-15T17:41:16;8.40;;;3.78;;
34146;SDS011;20423;49.448;9.056;2022-11-15T17:43:43;27.15;;;10.05;;
34146;SDS011;20423;49.448;9.056;2022-11-15T17:46:13;14.57;;;6.45;;
34146;SDS011;20423;49.448;9.056;2022-11-15T17:48:41;6.97;;;4.35;;
34146;SDS011;20423;49.448;9.056;2022-11-15T17:51:23;6.60;;;4.18;;
34146;SDS011;20423;49.448;9.056;2022-11-15T17:53:49;12.38;;;5.82;;
34146;SDS011;20423;49.448;9.056;2022-11-15T17:56:16;21.92;;;10.75;;
34146;SDS011;20423;49.448;9.056;2022-11-15T17:58:47;12.52;;;4.20;;
34146;SDS011;20423;49.448;9.056;2022-11-15T18:05:04;6.70;;;3.97;;
34146;SDS011;20423;49.448;9.056;2022-11-15T18:07:31;15.02;;;6.38;;
34146;SDS011;20423;49.448;9.056;2022-11-15T18:09:56;9.55;;;4.38;;
34146;SDS011;20423;49.448;9.056;2022-11-15T18:12:22;8.02;;;4.13;;
34146;SDS011;20423;49.448;9.056;2022-11-15T18:14:48;9.00;;;3.75;;
34146;SDS011;20423;49.448;9.056;2022-11-15T18:17:14;8.40;;;4.90;;
34146;SDS011;20423;49.448;9.056;2022-11-15T18:19:39;8.77;;;3.20;;
34146;SDS011;20423;49.448;9.056;2022-11-15T18:22:05;7.10;;;4.50;;
34146;SDS011;20423;49.448;9.056;2022-11-15T18:24:34;9.68;;;3.97;;
34146;SDS011;20423;49.448;9.056;2022-11-15T18:27:03;7.90;;;4.40;;
34146;SDS011;20423;49.448;9.056;2022-11-15T18:29:30;7.70;;;4.05;;
34146;SDS011;20423;49.448;9.056;2022-11-15T18:31:58;9.80;;;3.67;;
34146;SDS011;20423;49.448;9.056;2022-11-15T18:34:27;6.40;;;4.30;;
34146;SDS011;20423;49.448;9.056;2022-11-15T18:36:56;7.38;;;4.13;;
34146;SDS011;20423;49.448;9.056;2022-11-15T18:39:22;6.65;;;4.05;;
34146;SDS011;20423;49.448;9.056;2022-11-15T18:41:48;8.75;;;4.20;;
34146;SDS011;20423;49.448;9.056;2022-11-15T18:44:14;12.93;;;5.15;;
34146;SDS011;20423;49.448;9.056;2022-11-15T18:46:42;8.65;;;5.65;;
34146;SDS011;20423;49.448;9.056;2022-11-15T18:49:09;11.85;;;5.80;;
34146;SDS011;20423;49.448;9.056;2022-11-15T18:51:37;6.00;;;4.43;;
34146;SDS011;20423;49.448;9.056;2022-11-15T18:54:06;7.45;;;4.72;;
34146;SDS011;20423;49.448;9.056;2022-11-15T18:56:33;8.48;;;5.15;;
34146;SDS011;20423;49.448;9.056;2022-11-15T18:59:18;11.05;;;4.13;;
34146;SDS011;20423;49.448;9.056;2022-11-15T19:01:44;10.27;;;5.75;;